Time;durP1;ratioP1;P1;durP2;ratioP2;P2;SDS_P1;SDS_P2;PMS_P1;PMS_P2;Temp;Humidity;BMP_temperature;BMP_pressure;BME280_temperature;BME280_humidity;BME280_pressure;Samples;Min_cycle;Max_cycle;Signal;HPM_P1;HPM_P2
2021/10/21 02:46:50;;;;;;;62.90;39.22;;;10.00;98.00;;;;;;5115843;24;20047;-79
2021/10/21 02:49:16;;;;;;;57.88;36.65;;;9.90;97.90;;;;;;4796820;29;20035;-79
2021/10/21 02:51:42;;;;;;;60.35;35.50;;;9.90;97.90;;;;;;4790195;29;20039;-81
2021/10/21 02:54:08;;;;;;;61.63;37.03;;;9.90;97.80;;;;;;4797227;29;20036;-79
2021/10/21 02:56:34;;;;;;;57.35;35.58;;;9.80;97.80;;;;;;4796888;29;20040;-81
2021/10/21 02:58:59;;;;;;;65.78;41.63;;;9.90;97.90;;;;;;4797094;29;20019;-79
2021/10/21 03:01:26;;;;;;;68.40;40.28;;;9.80;98.00;;;;;;4782238;29;20227;-79
2021/10/21 03:03:52;;;;;;;52.95;34.97;;;9.80;98.30;;;;;;4797061;29;20027;-79
2021/10/21 03:06:18;;;;;;;54.58;34.60;;;9.80;98.20;;;;;;4796929;29;20054;-79
2021/10/21 03:08:44;;;;;;;59.03;33.75;;;9.80;97.90;;;;;;4782014;29;20035;-81
2021/10/21 03:11:10;;;;;;;55.28;34.17;;;9.80;97.80;;;;;;4797189;29;20114;-81
2021/10/21 03:13:36;;;;;;;53.15;34.58;;;9.80;97.90;;;;;;4797852;29;20062;-81
2021/10/21 03:16:01;;;;;;;52.30;33.92;;;9.80;97.80;;;;;;4797779;29;20235;-79
2021/10/21 03:18:27;;;;;;;56.95;35.45;;;9.70;97.80;;;;;;4796842;29;20035;-79
2021/10/21 03:20:53;;;;;;;72.40;42.47;;;9.70;97.80;;;;;;4796575;29;20044;-82
2021/10/21 03:23:23;;;;;;;51.25;34.53;;;9.70;97.90;;;;;;4796602;29;20031;-79
2021/10/21 03:25:49;;;;;;;53.88;33.90;;;9.70;97.80;;;;;;4796642;29;20106;-81
2021/10/21 03:28:14;;;;;;;51.17;32.90;;;9.70;97.70;;;;;;4806808;29;20234;-79
2021/10/21 03:30:40;;;;;;;63.42;38.38;;;9.70;97.80;;;;;;4796721;29;20054;-79
2021/10/21 03:33:06;;;;;;;57.67;37.80;;;9.70;97.80;;;;;;4781680;29;20039;-79
2021/10/21 03:35:32;;;;;;;59.35;36.97;;;9.70;97.90;;;;;;4796739;29;20035;-81
2021/10/21 03:37:58;;;;;;;67.53;42.17;;;9.70;97.90;;;;;;4796732;29;20072;-82
2021/10/21 03:40:23;;;;;;;56.55;34.03;;;9.70;97.90;;;;;;4796860;29;20031;-81
2021/10/21 03:42:49;;;;;;;58.20;36.58;;;9.70;98.00;;;;;;4783872;29;20027;-81
2021/10/21 03:45:15;;;;;;;64.60;40.22;;;9.80;98.00;;;;;;4800249;29;20043;-81
2021/10/21 03:47:41;;;;;;;63.92;39.70;;;9.80;98.00;;;;;;4799775;29;20074;-81
2021/10/21 03:50:07;;;;;;;65.15;38.83;;;9.80;98.10;;;;;;4788263;30;20039;-81
2021/10/21 03:52:33;;;;;;;53.97;36.33;;;9.90;98.30;;;;;;4782319;29;20231;-81
2021/10/21 03:54:59;;;;;;;58.55;35.55;;;9.90;98.30;;;;;;4782083;30;20322;-81
2021/10/21 03:57:25;;;;;;;58.78;37.47;;;10.00;98.40;;;;;;4778577;29;20267;-81
2021/10/21 03:59:51;;;;;;;70.90;42.97;;;10.00;98.40;;;;;;4799734;29;20080;-81
2021/10/21 04:02:17;;;;;;;54.88;36.42;;;10.00;98.50;;;;;;4788744;29;20216;-81
2021/10/21 04:04:42;;;;;;;61.67;35.05;;;10.00;98.50;;;;;;4798973;30;20041;-81
2021/10/21 04:07:08;;;;;;;54.35;35.97;;;10.00;98.40;;;;;;4795111;29;20047;-81
2021/10/21 04:09:34;;;;;;;56.00;36.05;;;10.10;98.50;;;;;;4781657;29;20042;-81
2021/10/21 04:12:00;;;;;;;64.38;38.97;;;10.00;98.40;;;;;;4781738;29;20040;-81
2021/10/21 04:14:26;;;;;;;58.25;35.55;;;10.00;98.50;;;;;;4785764;30;20095;-81
2021/10/21 04:16:52;;;;;;;72.03;44.97;;;10.00;98.40;;;;;;4791125;29;20036;-81
2021/10/21 04:19:17;;;;;;;72.97;42.10;;;10.00;98.60;;;;;;4791527;30;20323;-81
2021/10/21 04:21:43;;;;;;;73.65;40.45;;;10.00;98.70;;;;;;4789703;29;20331;-81
2021/10/21 04:24:09;;;;;;;75.28;45.28;;;10.00;98.90;;;;;;4772893;29;20077;-81
2021/10/21 04:26:35;;;;;;;76.47;45.03;;;10.00;98.80;;;;;;4776048;30;20063;-81
2021/10/21 04:29:01;;;;;;;58.75;35.83;;;9.90;99.00;;;;;;4799644;29;20235;-81
2021/10/21 04:31:26;;;;;;;75.18;46.65;;;9.90;99.10;;;;;;4799531;29;20039;-81
2021/10/21 04:33:52;;;;;;;73.20;42.60;;;9.90;99.10;;;;;;4796611;29;20103;-81
2021/10/21 04:36:18;;;;;;;82.28;47.60;;;9.90;99.60;;;;;;4766852;30;20054;-81
2021/10/21 04:38:43;;;;;;;75.65;46.35;;;9.90;99.90;;;;;;4754136;30;20031;-81
2021/10/21 04:41:09;;;;;;;79.43;47.88;;;10.00;99.90;;;;;;4796927;29;20039;-81
2021/10/21 04:43:35;;;;;;;79.50;46.42;;;10.00;99.90;;;;;;4774358;30;20058;-81
2021/10/21 04:46:01;;;;;;;84.63;51.53;;;10.00;99.90;;;;;;4790915;29;20255;-81
2021/10/21 04:48:26;;;;;;;73.55;43.85;;;10.10;99.90;;;;;;4767997;30;20375;-81
2021/10/21 04:50:52;;;;;;;64.10;40.63;;;10.10;99.90;;;;;;4797510;29;20035;-81
2021/10/21 04:53:18;;;;;;;78.95;48.70;;;10.10;99.90;;;;;;4773046;30;20035;-81
2021/10/21 04:55:43;;;;;;;84.97;47.85;;;10.10;99.90;;;;;;4797819;29;20042;-81
2021/10/21 04:58:09;;;;;;;82.72;46.97;;;10.10;99.90;;;;;;4781850;29;20067;-81
2021/10/21 05:00:35;;;;;;;108.35;58.75;;;10.10;99.90;;;;;;4792856;29;20031;-81
2021/10/21 05:03:09;;;;;;;74.07;47.15;;;10.10;99.90;;;;;;4798622;29;20035;-81
2021/10/21 05:05:35;;;;;;;80.65;45.88;;;10.10;99.90;;;;;;4785757;29;20040;-81
2021/10/21 05:08:01;;;;;;;76.03;47.28;;;10.00;99.90;;;;;;4781662;29;20029;-81
2021/10/21 05:10:27;;;;;;;73.75;41.58;;;10.10;99.90;;;;;;4786732;29;20036;-81
2021/10/21 05:12:53;;;;;;;59.72;38.83;;;10.00;99.90;;;;;;4797987;29;20208;-81
2021/10/21 05:15:18;;;;;;;66.40;40.70;;;10.00;99.90;;;;;;4794506;29;20031;-81
2021/10/21 05:17:44;;;;;;;63.13;39.92;;;9.90;99.90;;;;;;4787335;29;20035;-81
2021/10/21 05:20:11;;;;;;;84.60;47.78;;;9.90;99.90;;;;;;4793144;30;20031;-81
2021/10/21 05:22:37;;;;;;;106.00;54.28;;;9.90;99.90;;;;;;4771739;30;20058;-81
2021/10/21 05:25:04;;;;;;;71.25;44.03;;;9.90;99.90;;;;;;4780730;29;20039;-81
2021/10/21 05:27:30;;;;;;;73.10;43.10;;;9.90;99.90;;;;;;4786740;30;20219;-81
2021/10/21 05:29:56;;;;;;;95.80;50.05;;;9.90;99.90;;;;;;4786816;29;20042;-81
2021/10/21 05:32:22;;;;;;;77.80;44.88;;;9.90;99.90;;;;;;4792387;29;20339;-81
2021/10/21 05:34:48;;;;;;;63.33;38.45;;;9.80;99.90;;;;;;4780426;30;20146;-81
2021/10/21 05:37:14;;;;;;;61.10;37.67;;;9.80;99.90;;;;;;4785616;30;20039;-81
2021/10/21 05:39:40;;;;;;;81.28;46.40;;;9.80;99.90;;;;;;4780935;29;20073;-81
2021/10/21 05:42:07;;;;;;;55.40;36.25;;;9.80;99.90;;;;;;4792304;30;20078;-81
2021/10/21 05:44:33;;;;;;;77.40;43.25;;;9.80;99.90;;;;;;4782249;30;20106;-81
2021/10/21 05:46:59;;;;;;;76.95;45.72;;;9.80;99.80;;;;;;4786494;29;20079;-81
2021/10/21 05:49:25;;;;;;;62.22;38.67;;;9.80;99.90;;;;;;4769530;29;20084;-80
2021/10/21 05:51:50;;;;;;;62.10;40.35;;;9.80;99.80;;;;;;4791235;29;20030;-81
2021/10/21 05:54:16;;;;;;;77.07;46.30;;;9.80;99.80;;;;;;4797069;29;20047;-81
2021/10/21 05:56:43;;;;;;;71.70;39.50;;;9.80;99.80;;;;;;4796644;29;20039;-81
2021/10/21 05:59:09;;;;;;;59.00;38.63;;;9.80;99.80;;;;;;4792201;29;20043;-81
2021/10/21 06:01:35;;;;;;;73.20;45.65;;;9.80;99.60;;;;;;4765083;30;20054;-81
2021/10/21 06:04:00;;;;;;;60.88;37.25;;;9.80;99.50;;;;;;4777178;30;20028;-81
2021/10/21 06:06:26;;;;;;;66.35;41.45;;;9.80;99.50;;;;;;4778752;30;20036;-81
2021/10/21 06:08:52;;;;;;;101.93;57.00;;;9.80;99.50;;;;;;4767402;30;20103;-81
2021/10/21 06:11:18;;;;;;;61.67;39.42;;;9.80;99.90;;;;;;4778686;29;20073;-81
2021/10/21 06:13:43;;;;;;;82.70;48.00;;;9.90;99.90;;;;;;4778605;30;20221;-81
2021/10/21 06:16:09;;;;;;;64.60;40.90;;;9.90;99.90;;;;;;4782351;29;20110;-81
2021/10/21 06:18:35;;;;;;;86.88;51.05;;;10.00;99.90;;;;;;4786743;30;20035;-81
2021/10/21 06:21:05;;;;;;;64.63;40.30;;;10.00;99.90;;;;;;4766505;30;20082;-81
2021/10/21 06:23:31;;;;;;;70.70;44.80;;;10.10;99.90;;;;;;4780954;29;20042;-81
2021/10/21 06:25:57;;;;;;;63.80;39.53;;;10.20;99.90;;;;;;4780628;29;20209;-81
2021/10/21 06:28:22;;;;;;;68.28;43.45;;;10.30;99.90;;;;;;4780991;30;20035;-81
2021/10/21 06:30:48;;;;;;;86.82;49.95;;;10.50;99.90;;;;;;4779933;29;20039;-81
2021/10/21 06:33:15;;;;;;;87.32;48.30;;;10.60;99.90;;;;;;4779535;30;20047;-81
2021/10/21 06:35:45;;;;;;;77.90;47.53;;;10.70;99.90;;;;;;4765679;30;20039;-81
2021/10/21 06:38:14;;;;;;;82.22;49.22;;;10.80;99.90;;;;;;4777783;29;20324;-81
2021/10/21 06:40:40;;;;;;;84.32;49.42;;;10.90;99.90;;;;;;4781780;29;20035;-81
2021/10/21 06:43:06;;;;;;;93.18;53.25;;;11.00;99.90;;;;;;4781806;29;20027;-81
2021/10/21 06:45:33;;;;;;;99.43;53.17;;;11.10;99.90;;;;;;4777888;29;20093;-81
2021/10/21 06:47:59;;;;;;;91.90;53.03;;;11.20;99.90;;;;;;4775371;30;20039;-81
2021/10/21 06:50:25;;;;;;;102.35;53.10;;;11.20;99.90;;;;;;4783113;29;20038;-81
2021/10/21 06:52:51;;;;;;;85.82;49.03;;;11.30;99.90;;;;;;4778634;29;20027;-81
2021/10/21 06:55:17;;;;;;;86.78;47.80;;;11.50;99.90;;;;;;4764667;30;20323;-81
2021/10/21 06:57:50;;;;;;;76.38;46.65;;;11.50;99.90;;;;;;4778719;30;20050;-81
2021/10/21 07:00:17;;;;;;;76.68;47.25;;;11.70;99.90;;;;;;4782359;29;20303;-81
2021/10/21 07:02:43;;;;;;;70.22;43.78;;;11.80;99.90;;;;;;4780181;30;20031;-81
2021/10/21 07:05:10;;;;;;;60.42;41.35;;;11.90;99.90;;;;;;4778199;29;20039;-80
2021/10/21 07:07:36;;;;;;;67.15;41.60;;;12.00;99.90;;;;;;4778421;29;20274;-81
2021/10/21 07:10:06;;;;;;;64.47;41.83;;;12.10;99.90;;;;;;4761751;30;20032;-80
2021/10/21 07:12:33;;;;;;;68.10;42.25;;;12.20;99.90;;;;;;4763131;30;20097;-81
2021/10/21 07:14:59;;;;;;;61.03;39.42;;;12.30;99.90;;;;;;4777775;29;20024;-81
2021/10/21 07:17:26;;;;;;;55.13;37.88;;;12.40;99.80;;;;;;4782081;30;20035;-81
2021/10/21 07:19:52;;;;;;;74.65;40.03;;;12.50;99.60;;;;;;4780972;30;20044;-81
2021/10/21 07:22:19;;;;;;;63.17;36.53;;;12.60;99.40;;;;;;4766642;30;20327;-80
2021/10/21 07:24:45;;;;;;;52.53;35.80;;;12.70;99.10;;;;;;4783850;29;20588;-80
2021/10/21 07:27:11;;;;;;;63.72;37.25;;;12.80;98.90;;;;;;4767615;30;20285;-80
2021/10/21 07:29:37;;;;;;;55.13;37.28;;;12.90;98.60;;;;;;4781572;29;20242;-80
2021/10/21 07:32:03;;;;;;;58.78;35.35;;;13.00;98.50;;;;;;4766723;30;20066;-81
2021/10/21 07:34:29;;;;;;;52.03;32.88;;;13.10;98.40;;;;;;4781724;30;20078;-81
2021/10/21 07:36:57;;;;;;;52.25;32.88;;;13.20;97.90;;;;;;4783510;29;20239;-80
2021/10/21 07:39:24;;;;;;;54.85;34.33;;;13.30;97.70;;;;;;4782020;29;20020;-80
2021/10/21 07:41:50;;;;;;;56.93;35.40;;;13.40;97.20;;;;;;4782327;30;20249;-81
2021/10/21 07:44:17;;;;;;;58.15;34.03;;;13.40;97.50;;;;;;4782633;30;20289;-81
2021/10/21 07:46:46;;;;;;;53.45;35.63;;;13.20;97.20;;;;;;4786170;29;20363;-81
2021/10/21 07:49:13;;;;;;;57.20;32.97;;;13.30;97.30;;;;;;4778353;30;20036;-80
2021/10/21 07:51:39;;;;;;;;;;;13.40;97.10;;;;;;4782820;29;20070;-80
2021/10/21 07:54:06;;;;;;;51.80;31.53;;;13.50;96.60;;;;;;4775839;30;20165;-81
2021/10/21 07:56:33;;;;;;;52.25;32.53;;;13.70;96.80;;;;;;4766339;30;20087;-81
2021/10/21 07:59:01;;;;;;;50.75;32.53;;;13.80;95.90;;;;;;4793419;29;20027;-80
2021/10/21 08:01:27;;;;;;;54.13;32.47;;;14.00;95.90;;;;;;4798058;29;20035;-80
2021/10/21 08:03:53;;;;;;;57.33;32.85;;;14.10;95.70;;;;;;4788495;29;20286;-81
2021/10/21 08:06:19;;;;;;;50.58;32.80;;;14.30;95.30;;;;;;4786911;29;20031;-80
2021/10/21 08:08:45;;;;;;;53.42;32.13;;;14.40;94.70;;;;;;4766580;29;20035;-81
2021/10/21 08:11:11;;;;;;;50.13;32.08;;;14.60;94.70;;;;;;4792912;29;20035;-81
2021/10/21 08:13:36;;;;;;;47.38;31.00;;;14.80;94.70;;;;;;4787075;30;20095;-81
2021/10/21 08:16:02;;;;;;;50.70;31.73;;;14.90;93.90;;;;;;4794826;29;20331;-80
2021/10/21 08:18:28;;;;;;;51.80;31.35;;;15.10;93.70;;;;;;4766502;30;20070;-81
2021/10/21 08:20:54;;;;;;;50.90;31.35;;;15.10;93.30;;;;;;4781090;30;20032;-81
2021/10/21 08:23:20;;;;;;;57.08;31.52;;;15.20;92.80;;;;;;4781072;29;20106;-81
2021/10/21 08:25:46;;;;;;;40.85;29.13;;;15.30;93.00;;;;;;4781175;29;20095;-80
2021/10/21 08:28:12;;;;;;;43.28;29.23;;;15.50;93.00;;;;;;4766295;30;20020;-81
2021/10/21 08:30:41;;;;;;;43.33;28.27;;;15.80;92.50;;;;;;4778320;29;20227;-81
2021/10/21 08:33:07;;;;;;;53.97;28.58;;;15.90;92.10;;;;;;4795186;29;20039;-81
2021/10/21 08:35:34;;;;;;;39.20;26.90;;;16.30;91.80;;;;;;4785903;29;20043;-81
2021/10/21 08:38:01;;;;;;;41.90;27.58;;;16.60;91.00;;;;;;4781768;29;20205;-81
2021/10/21 08:40:29;;;;;;;43.67;26.23;;;16.80;90.20;;;;;;4777503;30;20047;-81
2021/10/21 08:42:55;;;;;;;41.50;27.35;;;16.90;88.80;;;;;;4783161;29;20106;-81
2021/10/21 08:45:22;;;;;;;34.10;24.15;;;16.80;88.70;;;;;;4813039;29;20271;-81
2021/10/21 08:47:50;;;;;;;35.05;23.73;;;16.80;88.70;;;;;;4792232;30;20043;-81
2021/10/21 08:50:18;;;;;;;38.60;24.33;;;16.90;89.70;;;;;;4793337;29;20061;-81
2021/10/21 08:52:45;;;;;;;40.17;24.95;;;17.10;88.20;;;;;;4780633;29;20039;-82
2021/10/21 08:55:13;;;;;;;41.58;25.50;;;17.20;87.00;;;;;;4779927;30;20039;-82
2021/10/21 08:57:39;;;;;;;42.35;24.52;;;17.30;87.00;;;;;;4778854;30;20066;-81
2021/10/21 09:00:10;;;;;;;54.83;27.90;;;17.20;86.70;;;;;;4779773;30;20032;-82
2021/10/21 09:08:12;;;;;;;32.13;22.90;;;17.50;86.70;;;;;;4778958;30;20051;-82
2021/10/21 09:10:53;;;;;;;41.03;24.15;;;17.70;84.70;;;;;;4771241;30;20191;-82
2021/10/21 09:13:22;;;;;;;36.22;23.38;;;17.70;84.50;;;;;;4783823;30;20051;-81
2021/10/21 09:15:50;;;;;;;33.22;22.50;;;17.80;84.50;;;;;;4781167;29;20042;-81
2021/10/21 09:18:17;;;;;;;31.00;20.75;;;18.10;83.90;;;;;;4797279;30;20055;-81
2021/10/21 09:20:44;;;;;;;36.05;22.27;;;18.30;82.30;;;;;;4772463;30;20335;-81
2021/10/21 09:23:16;;;;;;;30.23;22.02;;;18.30;81.70;;;;;;4782012;29;20035;-81
2021/10/21 09:25:44;;;;;;;36.42;21.52;;;18.40;82.20;;;;;;4778936;29;20040;-78
2021/10/21 09:28:24;;;;;;;29.38;20.88;;;18.40;81.60;;;;;;4782617;29;20275;-78
2021/10/21 09:30:52;;;;;;;31.90;20.00;;;18.40;82.00;;;;;;4776776;29;20047;-81
2021/10/21 09:33:17;;;;;;;;;;;18.60;81.50;;;;;;4763332;30;20036;-81
2021/10/21 09:35:58;;;;;;;29.33;19.33;;;18.80;81.00;;;;;;4778238;29;20210;-81
2021/10/21 09:38:33;;;;;;;36.95;19.95;;;19.10;79.60;;;;;;4777848;30;20048;-79
2021/10/21 09:41:14;;;;;;;31.13;17.80;;;19.30;78.00;;;;;;4778388;29;20266;-79
2021/10/21 09:43:40;;;;;;;23.15;16.20;;;19.30;78.60;;;;;;4782496;29;20235;-81
2021/10/21 09:46:42;;;;;;;29.60;17.73;;;19.50;78.70;;;;;;4772271;29;20064;-83
2021/10/21 09:49:22;;;;;;;24.38;16.73;;;19.60;77.40;;;;;;4779034;30;20036;-83
2021/10/21 09:51:51;;;;;;;26.05;16.95;;;19.80;76.90;;;;;;4773326;30;20112;-83
2021/10/21 09:54:18;;;;;;;33.30;17.27;;;19.90;76.10;;;;;;4778452;30;20032;-83
2021/10/21 09:57:12;;;;;;;26.33;16.50;;;19.90;77.00;;;;;;4781292;29;20040;-80
2021/10/21 09:59:39;;;;;;;24.98;15.88;;;19.90;75.60;;;;;;4782618;30;20023;-80
2021/10/21 10:02:07;;;;;;;28.60;17.23;;;19.80;76.80;;;;;;4781287;29;20035;-80
2021/10/21 10:04:34;;;;;;;21.90;15.45;;;19.70;76.60;;;;;;4778398;30;20025;-80
2021/10/21 10:07:01;;;;;;;28.02;17.98;;;19.70;76.30;;;;;;4780530;29;20264;-82
2021/10/21 10:09:35;;;;;;;27.38;16.55;;;19.70;77.10;;;;;;4779254;30;20039;-83
2021/10/21 10:12:04;;;;;;;29.15;15.85;;;19.80;77.20;;;;;;4781914;30;20038;-82
2021/10/21 10:14:31;;;;;;;21.35;14.82;;;20.10;77.40;;;;;;4779360;29;20098;-80
2021/10/21 10:17:01;;;;;;;22.43;13.73;;;20.40;75.50;;;;;;4778091;30;20323;-82
2021/10/21 10:19:29;;;;;;;20.60;13.00;;;20.80;75.50;;;;;;4777175;30;20024;-82
2021/10/21 10:21:57;;;;;;;15.98;11.07;;;21.30;74.40;;;;;;4783487;29;20060;-82
2021/10/21 10:24:29;;;;;;;23.38;10.25;;;21.40;71.50;;;;;;4782290;30;20040;-82
2021/10/21 10:26:58;;;;;;;18.02;9.10;;;21.30;71.10;;;;;;4776366;29;20039;-82
2021/10/21 10:29:32;;;;;;;17.83;9.60;;;21.10;71.90;;;;;;4774178;29;20294;-81
2021/10/21 10:32:06;;;;;;;11.70;8.45;;;21.00;71.50;;;;;;4774382;30;20034;-82
2021/10/21 10:34:35;;;;;;;10.23;7.78;;;21.00;72.40;;;;;;4775568;29;20028;-82
2021/10/21 10:37:13;;;;;;;17.45;8.02;;;21.00;71.60;;;;;;4760760;29;20032;-82
2021/10/21 10:39:45;;;;;;;18.40;6.22;;;21.00;70.50;;;;;;4800713;29;20052;-82
2021/10/21 10:42:13;;;;;;;15.77;7.97;;;21.00;71.60;;;;;;4774783;29;20096;-81
2021/10/21 10:44:38;;;;;;;11.38;5.72;;;21.20;72.60;;;;;;4774715;30;20019;-80
2021/10/21 10:47:06;;;;;;;6.43;3.90;;;21.30;71.80;;;;;;4778536;29;20035;-79
2021/10/21 10:49:41;;;;;;;6.40;3.75;;;21.40;70.30;;;;;;4778135;30;20031;-80
2021/10/21 10:52:14;;;;;;;9.48;3.28;;;21.40;69.50;;;;;;4795096;29;20046;-80
2021/10/21 10:54:39;;;;;;;12.20;3.00;;;21.20;68.60;;;;;;4777403;30;20105;-80
2021/10/21 10:57:07;;;;;;;4.88;3.05;;;21.20;67.60;;;;;;4777356;29;20061;-78
2021/10/21 10:59:35;;;;;;;12.77;2.67;;;21.00;66.00;;;;;;4777648;29;20102;-80
2021/10/21 11:02:28;;;;;;;5.32;2.70;;;21.10;67.30;;;;;;4778558;30;20034;-80
2021/10/21 11:04:54;;;;;;;9.77;2.90;;;21.00;65.60;;;;;;4778836;30;20040;-81
2021/10/21 11:07:21;;;;;;;5.00;2.25;;;20.90;65.60;;;;;;4779434;29;20031;-81
2021/10/21 11:09:47;;;;;;;5.75;2.33;;;20.90;65.30;;;;;;4775735;30;20219;-81
2021/10/21 11:12:24;;;;;;;5.93;2.15;;;20.90;65.30;;;;;;4778240;30;20036;-80
2021/10/21 11:14:54;;;;;;;2.58;1.90;;;20.90;64.50;;;;;;4777696;29;20086;-79
2021/10/21 11:17:40;;;;;;;8.55;1.85;;;21.00;63.90;;;;;;4778919;29;20039;-79
2021/10/21 11:20:06;;;;;;;8.65;2.67;;;20.90;62.80;;;;;;4778020;30;20049;-79
2021/10/21 11:22:34;;;;;;;8.18;2.33;;;20.90;62.40;;;;;;4791423;29;20047;-79
2021/10/21 11:25:08;;;;;;;6.40;2.22;;;21.00;63.20;;;;;;4778900;29;20119;-79
2021/10/21 11:27:37;;;;;;;5.13;2.33;;;21.10;61.40;;;;;;4779389;29;20032;-79
2021/10/21 11:30:09;;;;;;;8.68;1.98;;;21.00;59.70;;;;;;4779948;30;20032;-79
2021/10/21 11:32:37;;;;;;;3.17;2.13;;;20.90;59.80;;;;;;4777911;29;20262;-79
2021/10/21 11:35:16;;;;;;;5.05;1.73;;;20.80;59.70;;;;;;4785029;29;20051;-79
2021/10/21 11:37:45;;;;;;;9.88;1.95;;;20.70;57.80;;;;;;4779172;30;20052;-79
2021/10/21 11:40:16;;;;;;;15.98;2.42;;;20.80;58.00;;;;;;4784912;29;20110;-79
2021/10/21 11:42:55;;;;;;;12.52;1.63;;;20.90;57.50;;;;;;4778254;29;20050;-79
2021/10/21 11:45:30;;;;;;;11.35;1.10;;;20.90;56.10;;;;;;4785021;29;20069;-79
2021/10/21 11:47:58;;;;;;;16.65;2.30;;;20.90;54.50;;;;;;4779020;30;20050;-79
2021/10/21 11:50:34;;;;;;;8.13;1.33;;;21.00;54.00;;;;;;4783616;29;20115;-79
2021/10/21 11:53:02;;;;;;;20.17;1.88;;;21.20;52.40;;;;;;4775981;30;20042;-79
2021/10/21 11:55:28;;;;;;;13.45;2.08;;;21.30;51.10;;;;;;4791073;29;20032;-79
2021/10/21 11:58:01;;;;;;;6.85;1.20;;;21.30;50.90;;;;;;4791410;29;20031;-79
2021/10/21 12:00:28;;;;;;;20.77;2.15;;;21.20;50.20;;;;;;4786787;30;20042;-79
2021/10/21 12:03:00;;;;;;;27.48;1.83;;;21.10;50.30;;;;;;4795227;29;20103;-79
2021/10/21 12:05:28;;;;;;;18.40;1.80;;;21.00;50.00;;;;;;4784988;29;20054;-79
2021/10/21 12:07:54;;;;;;;8.27;1.42;;;20.90;49.80;;;;;;4791115;29;20323;-79
2021/10/21 12:10:46;;;;;;;12.30;1.52;;;20.80;49.90;;;;;;4793884;30;20196;-79
2021/10/21 12:13:27;;;;;;;10.13;1.73;;;20.80;50.00;;;;;;4766311;30;20052;-79
2021/10/21 12:15:55;;;;;;;8.90;1.30;;;20.70;49.90;;;;;;4782663;30;20062;-79
2021/10/21 12:18:23;;;;;;;8.90;1.45;;;20.60;50.40;;;;;;4779492;30;20031;-79
2021/10/21 12:20:53;;;;;;;8.77;1.55;;;20.60;49.80;;;;;;4787303;29;20038;-79
2021/10/21 12:23:33;;;;;;;12.15;0.90;;;20.30;49.80;;;;;;4787168;30;20063;-79
2021/10/21 12:26:05;;;;;;;11.15;1.17;;;20.30;50.10;;;;;;4786357;29;20119;-80
2021/10/21 12:28:47;;;;;;;9.95;1.38;;;20.30;50.40;;;;;;4789001;30;20045;-79
2021/10/21 12:31:36;;;;;;;8.45;1.63;;;20.30;50.60;;;;;;4797498;30;20039;-80
2021/10/21 12:34:21;;;;;;;11.23;2.28;;;20.20;50.50;;;;;;4792573;29;20058;-79
2021/10/21 12:36:50;;;;;;;9.77;1.20;;;20.00;51.40;;;;;;4784515;29;20335;-80
2021/10/21 12:39:34;;;;;;;13.05;1.20;;;20.00;51.40;;;;;;4785918;29;20066;-79
2021/10/21 12:42:06;;;;;;;2.92;1.00;;;20.10;52.10;;;;;;4797564;29;20035;-80
2021/10/21 12:44:34;;;;;;;9.23;1.67;;;19.90;51.10;;;;;;4785293;30;20227;-80
2021/10/21 12:47:08;;;;;;;7.85;1.10;;;19.90;51.70;;;;;;4776650;30;20071;-79
2021/10/21 12:49:34;;;;;;;8.57;1.38;;;19.90;51.20;;;;;;4782607;29;20058;-79
2021/10/21 12:52:11;;;;;;;13.73;1.57;;;19.80;51.00;;;;;;4786734;30;20099;-80
2021/10/21 12:54:39;;;;;;;8.05;1.15;;;19.70;51.80;;;;;;4797382;29;20283;-80
2021/10/21 12:57:06;;;;;;;14.10;1.77;;;19.80;52.70;;;;;;4794000;29;20081;-80
2021/10/21 12:59:35;;;;;;;8.35;1.60;;;19.80;52.50;;;;;;4784759;29;20028;-79
2021/10/21 13:02:02;;;;;;;7.03;1.50;;;19.80;51.30;;;;;;4783614;30;20044;-80
2021/10/21 13:04:48;;;;;;;12.75;1.85;;;19.70;52.10;;;;;;4781209;29;20909;-79
2021/10/21 13:07:19;;;;;;;12.00;1.45;;;19.60;51.40;;;;;;4790224;30;20076;-79
2021/10/21 13:09:48;;;;;;;15.07;1.30;;;19.50;52.40;;;;;;4783489;29;20055;-79
2021/10/21 13:12:18;;;;;;;8.38;1.70;;;19.50;51.90;;;;;;4779940;29;20380;-79
2021/10/21 13:14:46;;;;;;;5.97;1.05;;;19.30;51.70;;;;;;4796542;29;20033;-80
2021/10/21 13:17:12;;;;;;;15.73;1.25;;;19.30;52.30;;;;;;4786025;29;20027;-80
2021/10/21 13:19:38;;;;;;;11.00;1.55;;;19.20;52.50;;;;;;4779659;30;20051;-80
2021/10/21 13:22:05;;;;;;;8.40;1.25;;;19.30;52.60;;;;;;4784690;29;20035;-80
2021/10/21 13:24:32;;;;;;;5.60;1.67;;;19.20;52.60;;;;;;4780162;29;20038;-80
2021/10/21 13:27:02;;;;;;;15.00;1.77;;;19.20;52.90;;;;;;4787652;30;20040;-80
2021/10/21 13:29:28;;;;;;;13.65;2.83;;;19.10;53.20;;;;;;4785235;29;20292;-80
2021/10/21 13:31:55;;;;;;;16.58;1.60;;;19.10;53.20;;;;;;4785881;29;20062;-80
2021/10/21 13:34:21;;;;;;;20.83;2.25;;;19.10;52.90;;;;;;4779782;29;20317;-80
2021/10/21 13:36:47;;;;;;;7.97;1.25;;;19.00;53.30;;;;;;4784351;30;20039;-80
2021/10/21 13:39:14;;;;;;;5.50;1.45;;;19.00;53.80;;;;;;4792381;30;20039;-80
2021/10/21 13:41:40;;;;;;;9.80;1.73;;;19.00;53.50;;;;;;4777312;30;20024;-80
2021/10/21 13:44:06;;;;;;;7.68;1.73;;;19.00;53.60;;;;;;4773053;30;20304;-80
2021/10/21 13:46:33;;;;;;;11.35;1.40;;;19.00;53.90;;;;;;4779259;29;20059;-80
2021/10/21 13:48:59;;;;;;;6.20;1.38;;;19.00;53.80;;;;;;4776440;30;20032;-80
2021/10/21 13:51:25;;;;;;;8.38;1.10;;;19.00;54.00;;;;;;4773451;30;20114;-80
2021/10/21 13:53:51;;;;;;;11.25;1.35;;;19.00;54.30;;;;;;4776405;30;20072;-80
2021/10/21 13:56:17;;;;;;;7.47;1.40;;;19.00;54.80;;;;;;4779588;29;20117;-80
2021/10/21 13:58:44;;;;;;;6.93;1.42;;;19.00;55.10;;;;;;4774456;30;20036;-80
2021/10/21 14:01:10;;;;;;;13.68;1.70;;;19.00;55.10;;;;;;4773287;29;20042;-80
2021/10/21 14:03:36;;;;;;;7.10;1.48;;;18.90;55.30;;;;;;4783842;29;20032;-80
2021/10/21 14:06:03;;;;;;;6.38;1.38;;;18.90;55.10;;;;;;4760264;30;20046;-80
2021/10/21 14:08:31;;;;;;;4.90;1.60;;;18.90;55.60;;;;;;4768555;30;20035;-80
2021/10/21 14:10:57;;;;;;;14.55;1.40;;;18.90;55.80;;;;;;4781563;29;20366;-80
2021/10/21 14:13:23;;;;;;;9.52;2.22;;;18.80;55.90;;;;;;4778648;30;20035;-80
2021/10/21 14:15:49;;;;;;;16.50;2.70;;;18.80;55.80;;;;;;4776802;30;20090;-81
2021/10/21 14:18:15;;;;;;;11.07;1.77;;;18.80;56.00;;;;;;4771251;30;20342;-80
2021/10/21 14:20:41;;;;;;;9.68;1.42;;;18.80;56.20;;;;;;4781635;30;20035;-80
2021/10/21 14:23:07;;;;;;;2.75;0.93;;;18.80;56.50;;;;;;4786998;29;20027;-80
2021/10/21 14:25:33;;;;;;;12.82;1.40;;;18.70;56.20;;;;;;4777560;29;20035;-80
2021/10/21 14:27:59;;;;;;;18.40;2.05;;;18.70;57.40;;;;;;4766264;30;20206;-80
2021/10/21 14:30:25;;;;;;;4.82;1.30;;;18.70;56.70;;;;;;4776755;29;20047;-80
2021/10/21 14:32:51;;;;;;;11.10;1.30;;;18.70;56.60;;;;;;4769093;29;20040;-80
2021/10/21 14:35:17;;;;;;;5.57;1.60;;;18.70;56.80;;;;;;4778608;30;20061;-80
2021/10/21 14:37:46;;;;;;;11.07;1.58;;;18.70;56.20;;;;;;4761574;30;20059;-81
2021/10/21 14:40:14;;;;;;;8.20;1.27;;;18.70;56.10;;;;;;4763424;30;20032;-81
2021/10/21 14:42:41;;;;;;;15.50;1.48;;;18.60;56.50;;;;;;4782298;29;20040;-81
2021/10/21 14:45:08;;;;;;;;;;;18.70;56.70;;;;;;4784713;29;20319;-81
2021/10/21 14:47:33;;;;;;;6.60;1.30;;;18.60;56.60;;;;;;4783941;29;19925;-81
2021/10/21 14:49:59;;;;;;;9.82;1.70;;;18.60;56.30;;;;;;4776696;29;20043;-80
2021/10/21 14:52:25;;;;;;;11.68;1.15;;;18.60;56.00;;;;;;4778932;29;20099;-81
2021/10/21 14:54:51;;;;;;;11.40;3.55;;;18.60;56.40;;;;;;4778681;30;20035;-80
2021/10/21 14:57:17;;;;;;;9.90;2.25;;;18.60;56.10;;;;;;4764594;30;20027;-81
2021/10/21 14:59:44;;;;;;;8.27;1.30;;;18.60;56.60;;;;;;4784218;30;20066;-81
2021/10/21 15:02:10;;;;;;;;;;;18.60;56.90;;;;;;4780701;29;20269;-81
2021/10/21 15:04:38;;;;;;;4.97;1.50;;;18.60;56.50;;;;;;4781442;29;19920;-81
2021/10/21 15:22:51;;;;;;;3.83;1.15;;;18.50;55.70;;;;;;4803150;29;20039;-82
2021/10/21 15:25:17;;;;;;;6.88;1.40;;;18.50;55.90;;;;;;4791740;29;20047;-79
2021/10/21 15:27:45;;;;;;;3.97;1.25;;;18.50;55.90;;;;;;4787521;29;20035;-79
2021/10/21 15:30:13;;;;;;;7.63;1.50;;;18.50;56.30;;;;;;4780834;29;20043;-80
2021/10/21 15:32:40;;;;;;;13.23;1.15;;;18.40;55.70;;;;;;4804307;29;20051;-81
2021/10/21 15:35:07;;;;;;;3.60;1.30;;;18.50;55.20;;;;;;4791208;29;20042;-80
2021/10/21 15:37:36;;;;;;;7.63;1.52;;;18.40;54.70;;;;;;4799149;29;20042;-81
2021/10/21 15:40:04;;;;;;;4.70;0.95;;;18.40;55.20;;;;;;4800866;29;20042;-81
2021/10/21 15:42:32;;;;;;;5.90;0.90;;;18.40;54.90;;;;;;4795186;29;20039;-81
2021/10/21 15:47:31;;;;;;;4.35;1.17;;;18.40;54.70;;;;;;4808148;29;20059;-81
2021/10/21 15:50:06;;;;;;;9.20;1.95;;;18.40;54.80;;;;;;4783472;30;20067;-81